Time;durP1;ratioP1;P1;durP2;ratioP2;P2;SDS_P1;SDS_P2;PMS_P1;PMS_P2;Temp;Humidity;BMP_temperature;BMP_pressure;BME280_temperature;BME280_humidity;BME280_pressure;Samples;Min_cycle;Max_cycle;Signal;HPM_P1;HPM_P2
2021/06/01 00:02:23;;;;;;;5.57;2.60;;;15.40;1.00;;;;;;4970767;28;20628;-75
2021/06/01 00:04:49;;;;;;;3.63;2.47;;;15.30;1.00;;;;;;4974275;28;20206;-75
2021/06/01 00:07:14;;;;;;;7.20;3.20;;;15.30;1.00;;;;;;4977091;28;20536;-76
2021/06/01 00:09:40;;;;;;;5.97;3.20;;;15.30;1.00;;;;;;4972372;28;20214;-76
2021/06/01 00:12:06;;;;;;;4.70;2.73;;;15.20;1.00;;;;;;4971536;28;20717;-76
2021/06/01 00:14:32;;;;;;;4.60;3.03;;;15.10;1.00;;;;;;4969487;28;20224;-75
2021/06/01 00:16:58;;;;;;;6.93;3.97;;;15.20;1.00;;;;;;4971172;28;20496;-75
2021/06/01 00:19:23;;;;;;;4.93;3.43;;;15.20;1.00;;;;;;4973586;28;21290;-75
2021/06/01 00:21:49;;;;;;;5.83;2.93;;;15.10;1.00;;;;;;4972057;28;20702;-75
2021/06/01 00:24:15;;;;;;;4.57;3.43;;;15.10;1.00;;;;;;4972155;28;20194;-75
2021/06/01 00:26:43;;;;;;;5.10;3.20;;;15.10;1.00;;;;;;4973549;28;20320;-76
2021/06/01 00:29:09;;;;;;;5.43;3.30;;;15.20;1.00;;;;;;4973867;28;20550;-75
2021/06/01 00:31:36;;;;;;;4.23;3.00;;;15.20;1.00;;;;;;4966755;28;20484;-76
2021/06/01 00:34:03;;;;;;;9.17;2.97;;;15.20;1.00;;;;;;4970220;28;20472;-76
2021/06/01 00:36:29;;;;;;;6.93;3.27;;;15.20;1.00;;;;;;4972278;28;20794;-76
2021/06/01 00:38:54;;;;;;;4.20;3.30;;;15.20;1.00;;;;;;4969949;28;20455;-74
2021/06/01 00:41:21;;;;;;;3.90;2.80;;;15.20;1.00;;;;;;4975710;28;20745;-75
2021/06/01 00:43:46;;;;;;;4.80;3.03;;;15.10;1.00;;;;;;4970926;28;20213;-74
2021/06/01 00:46:12;;;;;;;3.93;2.93;;;15.10;1.00;;;;;;4965592;28;20958;-74
2021/06/01 00:48:38;;;;;;;4.87;3.00;;;15.00;1.00;;;;;;4973512;28;20612;-75
2021/06/01 00:51:04;;;;;;;7.83;3.33;;;14.90;1.00;;;;;;4977513;28;20217;-75
2021/06/01 00:53:30;;;;;;;4.80;3.43;;;15.00;1.00;;;;;;4968872;28;20196;-76
2021/06/01 00:55:56;;;;;;;5.60;3.00;;;14.90;1.00;;;;;;4976251;28;20456;-76
2021/06/01 00:58:21;;;;;;;8.80;3.00;;;14.90;1.00;;;;;;4972982;28;20196;-75
2021/06/01 01:03:35;;;;;;;4.40;2.90;;;14.90;1.00;;;;;;4970182;28;20871;-75
2021/06/01 01:06:07;;;;;;;6.13;3.00;;;14.90;1.00;;;;;;4970325;28;20466;-75
2021/06/01 01:08:48;;;;;;;7.43;2.87;;;14.70;1.00;;;;;;4972425;28;20487;-75
2021/06/01 01:11:37;;;;;;;7.13;5.00;;;14.70;1.00;;;;;;4977524;28;21115;-75
2021/06/01 01:14:15;;;;;;;5.77;3.17;;;14.60;1.00;;;;;;4972842;28;20599;-76
2021/06/01 01:16:46;;;;;;;4.60;3.40;;;14.60;1.00;;;;;;4973018;28;20448;-75
2021/06/01 01:19:22;;;;;;;8.30;3.00;;;14.50;1.00;;;;;;4972809;28;20536;-74
2021/06/01 01:21:55;;;;;;;5.77;3.30;;;14.40;1.00;;;;;;4970506;28;20606;-74
2021/06/01 01:24:26;;;;;;;5.90;3.17;;;14.50;1.00;;;;;;4973798;28;20471;-74
2021/06/01 01:27:14;;;;;;;5.60;3.23;;;14.40;1.00;;;;;;4975684;28;20460;-74
2021/06/01 01:29:41;;;;;;;6.17;3.80;;;14.40;1.00;;;;;;4970292;28;20854;-75
2021/06/01 01:32:20;;;;;;;7.50;3.00;;;14.20;1.00;;;;;;4973488;28;20510;-74
2021/06/01 01:34:47;;;;;;;5.10;3.57;;;14.20;1.00;;;;;;4974876;28;20610;-74
2021/06/01 01:37:15;;;;;;;5.77;3.20;;;14.10;1.00;;;;;;4977432;28;20487;-74
2021/06/01 01:39:46;;;;;;;3.47;3.17;;;14.00;1.00;;;;;;4974313;28;23346;-75
2021/06/01 01:42:14;;;;;;;7.53;3.50;;;14.00;1.00;;;;;;4974817;28;20498;-75
2021/06/01 01:44:48;;;;;;;7.67;3.60;;;13.90;1.00;;;;;;4971542;28;20453;-74
2021/06/01 01:50:05;;;;;;;7.10;4.13;;;13.90;1.00;;;;;;4971576;28;20448;-72
2021/06/01 01:52:35;;;;;;;5.80;3.80;;;13.80;1.00;;;;;;4976570;28;20545;-74
2021/06/01 01:55:01;;;;;;;6.10;4.47;;;13.70;1.00;;;;;;4970979;28;20448;-74
2021/06/01 01:57:27;;;;;;;6.03;4.13;;;13.70;1.00;;;;;;4974193;28;20560;-74
2021/06/01 01:59:53;;;;;;;8.20;4.03;;;13.70;1.00;;;;;;4965573;28;20189;-75
2021/06/01 02:02:19;;;;;;;8.03;4.30;;;13.60;1.00;;;;;;4971215;28;20489;-75
2021/06/01 02:04:47;;;;;;;9.13;4.03;;;13.50;1.00;;;;;;4974439;28;20610;-74
2021/06/01 02:07:13;;;;;;;6.80;4.20;;;13.50;1.00;;;;;;4976194;28;20837;-75
2021/06/01 02:09:38;;;;;;;7.80;4.70;;;13.50;1.00;;;;;;4971260;28;20434;-75
2021/06/01 02:12:05;;;;;;;4.70;3.67;;;13.60;1.00;;;;;;4973545;28;20705;-76
2021/06/01 02:14:31;;;;;;;5.50;3.70;;;13.60;1.00;;;;;;4968322;28;21152;-75
2021/06/01 02:17:00;;;;;;;7.27;4.03;;;13.60;1.00;;;;;;4974522;28;21062;-75
2021/06/01 02:19:26;;;;;;;6.00;4.10;;;13.60;1.00;;;;;;4974460;28;20510;-75
2021/06/01 02:22:28;;;;;;;8.60;4.50;;;13.40;1.00;;;;;;4975204;28;20464;-75
2021/06/01 02:25:14;;;;;;;6.90;3.87;;;13.30;1.00;;;;;;4973816;28;20521;-75
2021/06/01 02:28:00;;;;;;;8.67;4.10;;;13.20;1.00;;;;;;4975927;28;22749;-75
2021/06/01 02:30:41;;;;;;;7.60;4.10;;;13.00;1.00;;;;;;4973664;28;20484;-75
2021/06/01 02:33:08;;;;;;;11.33;4.60;;;12.90;1.00;;;;;;4970816;28;21372;-75
2021/06/01 02:35:38;;;;;;;11.13;4.77;;;12.80;1.00;;;;;;4971014;28;20474;-76
2021/06/01 02:38:06;;;;;;;8.53;4.83;;;12.80;1.00;;;;;;4972891;28;20441;-75
2021/06/01 02:40:33;;;;;;;5.20;4.20;;;12.70;1.00;;;;;;4973797;28;20480;-75
2021/06/01 02:43:01;;;;;;;8.37;4.67;;;12.60;1.00;;;;;;4975378;28;21159;-75
2021/06/01 02:45:27;;;;;;;8.00;4.30;;;12.70;1.00;;;;;;4979995;28;20468;-75
2021/06/01 02:47:54;;;;;;;6.80;4.43;;;12.70;1.00;;;;;;4970288;28;20502;-75
2021/06/01 02:50:20;;;;;;;6.83;4.57;;;12.70;1.00;;;;;;4974944;28;20491;-75
2021/06/01 02:52:48;;;;;;;5.83;5.00;;;12.80;1.00;;;;;;4972626;28;20453;-72
2021/06/01 02:55:18;;;;;;;10.93;5.17;;;12.80;1.00;;;;;;4968464;28;20471;-72
2021/06/01 02:57:44;;;;;;;7.30;4.83;;;12.80;1.00;;;;;;4975401;28;20547;-74
2021/06/01 03:00:15;;;;;;;12.03;5.37;;;12.80;1.00;;;;;;4971975;28;20445;-74
2021/06/01 03:02:42;;;;;;;8.33;5.50;;;12.80;1.00;;;;;;4970990;28;20934;-74
2021/06/01 03:05:08;;;;;;;8.23;4.90;;;12.70;1.00;;;;;;4970768;28;20436;-74
2021/06/01 03:07:37;;;;;;;9.97;4.90;;;12.60;1.00;;;;;;5004591;28;20479;-74
2021/06/01 03:10:05;;;;;;;9.30;4.90;;;12.60;1.00;;;;;;4970894;28;20452;-74
2021/06/01 03:14:56;;;;;;;9.00;5.23;;;12.60;1.00;;;;;;4970208;28;20500;-75
2021/06/01 03:17:21;;;;;;;11.23;4.73;;;12.50;1.00;;;;;;4971666;28;20569;-74
2021/06/01 03:19:47;;;;;;;7.00;4.40;;;12.60;1.00;;;;;;4965831;28;20272;-74
2021/06/01 03:22:13;;;;;;;7.50;5.10;;;12.70;1.00;;;;;;4972405;28;20209;-75
2021/06/01 03:24:38;;;;;;;12.27;4.77;;;12.80;1.00;;;;;;4970891;28;20694;-75
2021/06/01 03:27:04;;;;;;;10.87;4.50;;;12.80;1.00;;;;;;4965409;28;20653;-74
2021/06/01 03:29:31;;;;;;;9.00;4.80;;;12.80;1.00;;;;;;4972708;28;20194;-75
2021/06/01 03:31:56;;;;;;;12.73;5.57;;;12.80;1.00;;;;;;4962464;28;20483;-74
2021/06/01 03:34:22;;;;;;;8.43;4.57;;;12.70;1.00;;;;;;4965528;28;20457;-74
2021/06/01 03:36:48;;;;;;;12.23;4.53;;;12.70;1.00;;;;;;4977324;28;20201;-74
2021/06/01 03:39:15;;;;;;;8.57;5.63;;;12.60;1.00;;;;;;4977579;28;20448;-75
2021/06/01 03:41:41;;;;;;;14.33;4.60;;;12.70;1.00;;;;;;4972254;28;21030;-74
2021/06/01 03:44:07;;;;;;;6.10;5.00;;;12.70;1.00;;;;;;4969117;28;20460;-74
2021/06/01 03:46:32;;;;;;;6.30;4.50;;;12.60;1.00;;;;;;4970231;28;20277;-75
2021/06/01 03:48:58;;;;;;;7.93;4.90;;;12.50;1.00;;;;;;4971971;28;20186;-74
2021/06/01 03:51:24;;;;;;;5.47;4.23;;;12.40;1.00;;;;;;4966926;28;20570;-74
2021/06/01 03:53:50;;;;;;;8.03;4.83;;;12.40;1.00;;;;;;4975242;28;20178;-75
2021/06/01 03:56:16;;;;;;;8.03;4.20;;;12.30;1.00;;;;;;4971798;28;20209;-74
2021/06/01 03:58:42;;;;;;;7.73;4.93;;;12.30;1.00;;;;;;4971072;28;20918;-74
2021/06/01 04:01:08;;;;;;;6.47;4.10;;;12.30;1.00;;;;;;4970681;28;20181;-74
2021/06/01 04:03:40;;;;;;;12.23;4.47;;;12.20;1.00;;;;;;4971884;28;21032;-74
2021/06/01 04:06:06;;;;;;;11.17;4.57;;;12.20;1.00;;;;;;4967800;28;20217;-74
2021/06/01 04:08:32;;;;;;;7.70;4.57;;;12.20;1.00;;;;;;4972963;28;20462;-74
2021/06/01 04:10:57;;;;;;;5.40;4.43;;;12.20;1.00;;;;;;4968098;28;20467;-74
2021/06/01 04:13:23;;;;;;;5.07;4.30;;;12.20;1.00;;;;;;4972983;28;20700;-74
2021/06/01 04:15:49;;;;;;;7.87;4.77;;;12.00;1.00;;;;;;4967656;28;20192;-74
2021/06/01 04:18:14;;;;;;;9.87;4.93;;;12.00;1.00;;;;;;4974558;28;20197;-74
2021/06/01 04:20:40;;;;;;;8.13;4.43;;;12.00;1.00;;;;;;4974487;28;20557;-74
2021/06/01 04:23:05;;;;;;;6.37;4.60;;;11.90;1.00;;;;;;4979441;28;20677;-74
2021/06/01 04:25:31;;;;;;;11.33;4.90;;;11.90;1.00;;;;;;4978845;28;20186;-73
2021/06/01 04:27:57;;;;;;;6.97;5.30;;;11.70;1.00;;;;;;4978364;28;20197;-74
2021/06/01 04:30:23;;;;;;;7.17;5.33;;;11.80;1.00;;;;;;4986415;28;20193;-74
2021/06/01 04:32:48;;;;;;;8.73;5.37;;;11.80;1.00;;;;;;4976673;28;20189;-74
2021/06/01 04:35:14;;;;;;;9.03;5.00;;;11.90;1.00;;;;;;4977268;28;20898;-73
2021/06/01 04:37:40;;;;;;;8.70;5.00;;;11.90;1.00;;;;;;4973978;28;20208;-74
2021/06/01 04:40:10;;;;;;;8.30;4.97;;;11.80;1.00;;;;;;4969695;28;20399;-74
2021/06/01 04:42:35;;;;;;;10.20;5.57;;;11.80;1.00;;;;;;4977293;28;20288;-74
2021/06/01 04:45:01;;;;;;;8.23;5.00;;;11.90;1.00;;;;;;4981325;28;20960;-74
2021/06/01 04:47:27;;;;;;;10.53;5.70;;;11.90;1.00;;;;;;4969926;28;20913;-74
2021/06/01 04:49:53;;;;;;;8.07;5.07;;;12.00;1.00;;;;;;4983558;28;20316;-74
2021/06/01 04:52:19;;;;;;;8.20;5.40;;;12.00;1.00;;;;;;4981453;28;20256;-73
2021/06/01 04:54:44;;;;;;;8.20;5.50;;;12.20;1.00;;;;;;4977847;28;20521;-74
2021/06/01 04:57:10;;;;;;;7.00;5.40;;;12.20;1.00;;;;;;4981733;28;20714;-74
2021/06/01 04:59:37;;;;;;;7.07;5.40;;;12.20;1.00;;;;;;4975888;28;20189;-74
2021/06/01 05:02:04;;;;;;;8.40;5.90;;;12.30;1.00;;;;;;4967729;28;20216;-74
2021/06/01 05:04:30;;;;;;;19.13;5.83;;;12.30;1.00;;;;;;4971038;28;20464;-74
2021/06/01 05:06:57;;;;;;;7.50;6.27;;;12.40;1.00;;;;;;4976559;28;20580;-74
2021/06/01 05:09:24;;;;;;;13.10;6.10;;;12.50;1.00;;;;;;4971315;28;20193;-74
2021/06/01 05:11:50;;;;;;;9.63;5.63;;;12.60;1.00;;;;;;4967896;28;20475;-73
2021/06/01 05:14:16;;;;;;;9.90;6.60;;;12.60;1.00;;;;;;4960457;28;20448;-74
2021/06/01 05:16:42;;;;;;;11.30;6.60;;;12.70;1.00;;;;;;4976168;28;20186;-74
2021/06/01 05:19:07;;;;;;;15.57;6.70;;;12.70;1.00;;;;;;4970012;28;20593;-74
2021/06/01 05:21:33;;;;;;;10.53;6.43;;;12.70;1.00;;;;;;4972166;28;20998;-74
2021/06/01 05:23:59;;;;;;;13.00;7.17;;;12.80;1.00;;;;;;4976516;28;20188;-74
2021/06/01 05:26:25;;;;;;;14.47;6.70;;;12.90;1.00;;;;;;4971194;28;20197;-74
2021/06/01 05:28:51;;;;;;;9.77;6.80;;;12.90;1.00;;;;;;4979203;28;20543;-74
2021/06/01 05:33:54;;;;;;;9.93;6.37;;;13.00;1.00;;;;;;4967867;28;20514;-74
2021/06/01 05:36:20;;;;;;;12.60;5.90;;;13.00;1.00;;;;;;4981210;28;20307;-74
2021/06/01 05:38:46;;;;;;;10.77;6.07;;;13.10;1.00;;;;;;4977387;28;21395;-73
2021/06/01 05:41:12;;;;;;;10.60;6.90;;;13.10;1.00;;;;;;4981535;28;20459;-73
2021/06/01 05:43:38;;;;;;;9.87;6.33;;;13.20;1.00;;;;;;4973600;28;20505;-74
2021/06/01 05:46:05;;;;;;;12.80;7.50;;;13.20;1.00;;;;;;4979576;28;20204;-74
2021/06/01 05:48:30;;;;;;;10.40;6.40;;;13.30;1.00;;;;;;4978218;28;20456;-74
2021/06/01 05:50:57;;;;;;;9.57;5.80;;;13.30;1.00;;;;;;4976772;28;20481;-74
2021/06/01 05:53:24;;;;;;;8.70;6.17;;;13.40;1.00;;;;;;4977833;28;20186;-74
2021/06/01 05:55:51;;;;;;;8.17;5.70;;;13.60;1.00;;;;;;4977565;28;20561;-74
2021/06/01 05:58:17;;;;;;;11.00;6.13;;;13.70;1.00;;;;;;4974463;28;20543;-74
2021/06/01 06:00:43;;;;;;;14.00;6.60;;;13.80;1.00;;;;;;4969759;28;21405;-74
2021/06/01 06:03:09;;;;;;;8.17;5.57;;;13.90;1.00;;;;;;4981155;28;20509;-74
2021/06/01 06:05:35;;;;;;;9.03;5.33;;;14.10;1.00;;;;;;4976643;28;20464;-74
2021/06/01 06:08:30;;;;;;;11.40;5.17;;;14.20;1.00;;;;;;5006351;28;20545;-74
2021/06/01 06:10:56;;;;;;;6.17;5.10;;;14.50;1.00;;;;;;4991510;28;20235;-74
2021/06/01 06:13:22;;;;;;;11.50;5.53;;;14.70;1.00;;;;;;4978494;28;20977;-74
2021/06/01 06:15:48;;;;;;;11.60;6.37;;;14.90;1.00;;;;;;4972655;28;20471;-74
2021/06/01 06:18:36;;;;;;;7.40;5.07;;;15.00;1.00;;;;;;4972898;28;20481;-73
2021/06/01 06:21:04;;;;;;;11.93;5.10;;;15.20;1.00;;;;;;4975592;28;20188;-74
2021/06/01 06:23:31;;;;;;;10.83;5.57;;;15.30;1.00;;;;;;4971454;28;20574;-74
2021/06/01 06:25:58;;;;;;;8.50;5.63;;;15.40;1.00;;;;;;4962157;28;20487;-74
2021/06/01 06:28:23;;;;;;;7.63;4.70;;;15.60;1.00;;;;;;4967255;28;20440;-75
2021/06/01 06:30:49;;;;;;;6.93;5.40;;;15.70;1.00;;;;;;4966096;28;20498;-75
2021/06/01 06:33:15;;;;;;;12.07;6.00;;;15.80;1.00;;;;;;4959120;28;20210;-74
2021/06/01 06:35:40;;;;;;;9.30;6.27;;;16.00;1.00;;;;;;4963649;28;20459;-74
2021/06/01 06:38:06;;;;;;;7.20;5.53;;;16.10;1.00;;;;;;4966275;28;20212;-74
2021/06/01 06:40:32;;;;;;;8.33;5.50;;;16.30;1.00;;;;;;4961666;28;20194;-74
2021/06/01 06:42:58;;;;;;;9.00;6.03;;;16.40;1.00;;;;;;4971039;28;20194;-74
2021/06/01 06:45:25;;;;;;;13.30;6.50;;;16.60;1.00;;;;;;4970363;28;20234;-75
2021/06/01 06:50:19;;;;;;;8.50;5.50;;;17.00;1.00;;;;;;4977551;28;20457;-74
2021/06/01 06:52:45;;;;;;;13.83;7.70;;;17.10;1.00;;;;;;4967556;28;20523;-75
2021/06/01 06:55:12;;;;;;;10.37;5.77;;;17.20;1.00;;;;;;4969549;28;20462;-75
2021/06/01 06:57:39;;;;;;;8.67;5.47;;;17.30;1.00;;;;;;4966222;28;20190;-74
2021/06/01 07:00:09;;;;;;;13.40;5.10;;;17.50;1.00;;;;;;4973663;28;20502;-75
2021/06/01 07:02:36;;;;;;;6.57;4.33;;;17.70;1.00;;;;;;4962977;28;20505;-74
2021/06/01 07:05:03;;;;;;;8.80;5.00;;;17.90;1.00;;;;;;4969464;28;21249;-74
2021/06/01 07:07:29;;;;;;;6.57;3.87;;;18.10;1.00;;;;;;4961965;28;20510;-74
2021/06/01 07:09:55;;;;;;;8.00;4.43;;;18.30;1.00;;;;;;4974714;28;21157;-74
2021/06/01 07:12:21;;;;;;;6.70;3.93;;;18.40;1.00;;;;;;4967138;28;20480;-75
2021/06/01 07:15:22;;;;;;;8.83;4.30;;;18.40;1.00;;;;;;4961877;28;20296;-74
2021/06/01 07:17:54;;;;;;;5.87;4.10;;;18.50;1.00;;;;;;4978534;28;20193;-74
2021/06/01 07:20:20;;;;;;;6.70;4.23;;;18.60;1.00;;;;;;4964794;28;20453;-74
2021/06/01 07:22:46;;;;;;;7.67;3.53;;;18.70;1.00;;;;;;4966977;28;20509;-75
2021/06/01 07:25:12;;;;;;;7.90;4.03;;;18.90;1.00;;;;;;4968471;28;20189;-75
2021/06/01 07:27:38;;;;;;;5.13;4.20;;;19.00;1.00;;;;;;4970893;28;20654;-75
2021/06/01 07:30:05;;;;;;;4.40;3.40;;;19.00;1.00;;;;;;4964355;28;20190;-75
2021/06/01 07:32:31;;;;;;;5.00;3.63;;;19.10;1.00;;;;;;4963538;28;20484;-75
2021/06/01 07:34:58;;;;;;;3.60;3.30;;;19.20;1.00;;;;;;4980870;28;20445;-75
2021/06/01 07:37:24;;;;;;;7.00;3.17;;;19.40;1.00;;;;;;4959531;28;20201;-75
2021/06/01 07:39:50;;;;;;;3.40;3.10;;;19.40;1.00;;;;;;4969334;28;20473;-75
2021/06/01 07:42:16;;;;;;;5.20;3.50;;;19.60;1.00;;;;;;4963578;28;20213;-75
2021/06/01 07:44:41;;;;;;;5.47;3.30;;;19.60;1.00;;;;;;4966628;28;20198;-75
2021/06/01 07:47:07;;;;;;;4.20;2.73;;;19.80;1.00;;;;;;4972181;28;20181;-75
2021/06/01 07:49:33;;;;;;;4.70;3.90;;;19.90;1.00;;;;;;4973234;28;20236;-75
2021/06/01 07:51:58;;;;;;;5.13;3.80;;;19.80;1.00;;;;;;4972274;28;20222;-75
2021/06/01 07:54:24;;;;;;;4.07;3.10;;;19.90;1.00;;;;;;4972240;28;20186;-75
2021/06/01 07:56:50;;;;;;;12.90;5.10;;;20.00;1.00;;;;;;4966081;28;20198;-75
2021/06/01 07:59:16;;;;;;;7.50;3.43;;;20.10;1.00;;;;;;4966185;28;20459;-75
2021/06/01 08:01:43;;;;;;;5.60;3.27;;;20.20;1.00;;;;;;4971875;28;20452;-75
2021/06/01 08:04:09;;;;;;;5.10;3.00;;;20.20;1.00;;;;;;4962106;28;20532;-75
2021/06/01 08:06:37;;;;;;;3.23;2.83;;;20.30;1.00;;;;;;4974983;28;20512;-75
2021/06/01 08:09:05;;;;;;;4.40;2.97;;;20.50;1.00;;;;;;4971223;28;20448;-75
2021/06/01 08:11:31;;;;;;;3.60;3.00;;;20.60;1.00;;;;;;4982060;28;20475;-75
2021/06/01 08:13:56;;;;;;;4.03;3.00;;;20.70;1.00;;;;;;4962527;28;20457;-75
2021/06/01 08:16:22;;;;;;;3.40;2.40;;;20.70;1.00;;;;;;4964052;28;20679;-75
2021/06/01 08:19:02;;;;;;;6.63;3.00;;;20.90;1.00;;;;;;4980396;28;20186;-75
2021/06/01 08:24:13;;;;;;;3.60;2.80;;;21.00;1.00;;;;;;4970049;28;20949;-75
2021/06/01 08:26:39;;;;;;;3.57;2.90;;;21.10;1.00;;;;;;4970068;28;20450;-75
2021/06/01 08:29:06;;;;;;;3.03;2.63;;;21.20;1.00;;;;;;4970220;28;20204;-75
2021/06/01 08:31:32;;;;;;;3.40;2.40;;;21.30;1.00;;;;;;4975068;28;20613;-75
2021/06/01 08:33:57;;;;;;;4.67;2.73;;;21.40;1.00;;;;;;4966654;28;20457;-75
2021/06/01 08:36:25;;;;;;;4.70;2.77;;;21.50;1.00;;;;;;4968984;28;20243;-75
2021/06/01 08:38:51;;;;;;;3.23;2.67;;;21.70;1.00;;;;;;4971948;28;20224;-75
2021/06/01 08:41:17;;;;;;;4.83;2.70;;;21.70;1.00;;;;;;4978541;28;20466;-75
2021/06/01 08:43:44;;;;;;;3.37;2.93;;;21.60;1.00;;;;;;4971482;28;20447;-75
2021/06/01 08:46:10;;;;;;;6.80;4.70;;;21.60;1.00;;;;;;4970610;28;20212;-73
2021/06/01 08:48:39;;;;;;;2.87;2.50;;;21.70;1.00;;;;;;4970941;28;20934;-73
2021/06/01 08:51:06;;;;;;;2.70;2.30;;;21.60;1.00;;;;;;4976483;28;20525;-73
2021/06/01 08:53:35;;;;;;;2.67;2.30;;;21.50;1.00;;;;;;4974915;28;20529;-73
2021/06/01 08:56:02;;;;;;;4.00;2.83;;;21.70;1.00;;;;;;4976759;28;20451;-73
2021/06/01 08:58:28;;;;;;;3.97;3.20;;;21.80;1.00;;;;;;4970175;28;20471;-73
2021/06/01 09:00:53;;;;;;;5.07;2.60;;;21.90;1.00;;;;;;4977250;28;20445;-73
2021/06/01 09:03:23;;;;;;;3.90;2.80;;;21.90;1.00;;;;;;4969937;28;20961;-73
2021/06/01 09:06:23;;;;;;;5.00;3.23;;;21.90;1.00;;;;;;4962045;28;20208;-73
2021/06/01 09:11:38;;;;;;;3.80;2.50;;;22.10;1.00;;;;;;4966348;28;20567;-73
2021/06/01 09:22:05;;;;;;;6.27;3.37;;;22.40;1.00;;;;;;4982580;28;20532;-73
2021/06/01 09:24:31;;;;;;;3.67;3.00;;;22.40;1.00;;;;;;4964646;28;20453;-73
2021/06/01 09:27:15;;;;;;;3.47;2.50;;;22.50;1.00;;;;;;4975454;28;20204;-73
2021/06/01 09:29:47;;;;;;;4.83;3.00;;;22.50;1.00;;;;;;4974378;28;20244;-76
2021/06/01 09:32:16;;;;;;;4.57;2.80;;;22.50;1.00;;;;;;4975430;28;20942;-76
2021/06/01 09:34:50;;;;;;;4.20;2.50;;;22.70;1.00;;;;;;4972617;28;20468;-76
2021/06/01 09:37:25;;;;;;;5.10;2.60;;;22.60;1.00;;;;;;4971134;28;20477;-75
2021/06/01 09:40:07;;;;;;;4.10;2.90;;;22.60;1.00;;;;;;4969871;28;20481;-76
2021/06/01 09:42:34;;;;;;;6.03;2.60;;;22.70;1.00;;;;;;4973373;28;20951;-76
2021/06/01 09:45:04;;;;;;;4.40;2.87;;;22.70;1.00;;;;;;4970634;28;20464;-76
2021/06/01 09:47:52;;;;;;;2.80;2.40;;;22.80;1.00;;;;;;4970908;28;20446;-75
2021/06/01 09:52:57;;;;;;;6.73;2.73;;;22.70;1.00;;;;;;4973654;28;20561;-76
2021/06/01 09:55:47;;;;;;;2.80;2.27;;;22.70;1.00;;;;;;4974806;28;20445;-76
2021/06/01 09:58:14;;;;;;;3.03;2.73;;;22.90;1.00;;;;;;4970105;28;20464;-76
2021/06/01 10:00:41;;;;;;;3.07;2.77;;;23.10;1.00;;;;;;4971113;28;20548;-76
2021/06/01 10:03:16;;;;;;;7.23;2.77;;;23.10;1.00;;;;;;4967359;28;20543;-76
2021/06/01 10:05:43;;;;;;;4.77;2.67;;;23.10;1.00;;;;;;4973977;28;20959;-76
2021/06/01 10:08:14;;;;;;;4.30;2.70;;;23.30;1.00;;;;;;4972274;28;20505;-76
2021/06/01 10:10:52;;;;;;;4.57;2.50;;;23.50;1.00;;;;;;4976079;28;21120;-76
2021/06/01 10:13:18;;;;;;;4.73;2.73;;;23.30;1.00;;;;;;4963428;28;21151;-76
2021/06/01 10:15:44;;;;;;;5.63;2.57;;;23.20;1.00;;;;;;4976569;28;20492;-76
2021/06/01 10:18:12;;;;;;;3.40;2.40;;;23.30;1.00;;;;;;4967622;28;21220;-76
2021/06/01 10:20:40;;;;;;;3.50;2.60;;;23.20;1.00;;;;;;4968647;28;20185;-76
2021/06/01 10:23:07;;;;;;;2.90;2.60;;;23.30;1.00;;;;;;4972218;28;20483;-76
2021/06/01 10:25:34;;;;;;;5.40;2.40;;;23.40;1.00;;;;;;4970539;28;20479;-76
2021/06/01 10:28:03;;;;;;;3.73;2.60;;;23.40;1.00;;;;;;4997854;28;20441;-76
2021/06/01 10:30:32;;;;;;;6.13;2.50;;;23.40;1.00;;;;;;4972878;28;20568;-76
2021/06/01 10:33:06;;;;;;;2.90;2.50;;;23.50;1.00;;;;;;4979526;28;20539;-76
2021/06/01 10:35:40;;;;;;;3.93;2.10;;;23.40;1.00;;;;;;4962428;28;20528;-76
2021/06/01 10:52:17;;;;;;;3.73;2.43;;;23.60;1.00;;;;;;4971435;28;20489;-76
2021/06/01 10:54:52;;;;;;;4.90;3.03;;;23.70;1.00;;;;;;4970532;28;20992;-75
2021/06/01 10:57:19;;;;;;;3.67;2.37;;;23.90;1.00;;;;;;4970382;28;20279;-75
2021/06/01 11:02:24;;;;;;;2.87;2.30;;;23.80;1.00;;;;;;4971959;28;20458;-75
2021/06/01 11:05:10;;;;;;;3.03;2.40;;;23.70;1.00;;;;;;4970610;28;20464;-75
2021/06/01 11:07:51;;;;;;;7.10;2.87;;;23.90;1.00;;;;;;4971463;28;20467;-75
2021/06/01 11:10:45;;;;;;;3.57;2.87;;;24.00;1.00;;;;;;4969535;28;21032;-75
2021/06/01 11:13:31;;;;;;;4.33;3.03;;;23.90;1.00;;;;;;4968007;28;20507;-75
2021/06/01 11:15:59;;;;;;;3.10;2.60;;;24.00;1.00;;;;;;4973980;28;20892;-75
2021/06/01 11:18:33;;;;;;;3.50;2.70;;;24.10;1.00;;;;;;4977250;28;20543;-75
2021/06/01 11:21:20;;;;;;;3.73;2.63;;;24.00;1.00;;;;;;4972199;28;20466;-75
2021/06/01 11:35:14;;;;;;;5.80;3.00;;;24.30;1.00;;;;;;4965118;28;20794;-75
2021/06/01 11:37:55;;;;;;;3.53;2.60;;;24.50;1.00;;;;;;4965501;28;20552;-75
2021/06/01 11:43:05;;;;;;;4.90;2.70;;;24.40;1.00;;;;;;4969987;28;20536;-75
2021/06/01 11:51:16;;;;;;;2.83;2.30;;;24.40;1.00;;;;;;4965248;28;20483;-74
2021/06/01 11:53:57;;;;;;;6.33;2.40;;;24.50;1.00;;;;;;4966481;28;20461;-75
2021/06/01 11:56:59;;;;;;;7.33;2.40;;;24.60;1.00;;;;;;4963362;28;20479;-75
2021/06/01 12:02:55;;;;;;;3.30;2.67;;;24.50;1.00;;;;;;4969869;28;20466;-75
2021/06/01 12:11:10;;;;;;;4.47;2.40;;;24.40;1.00;;;;;;4958079;28;20449;-75
2021/06/01 12:13:55;;;;;;;4.70;2.53;;;24.80;1.00;;;;;;4968627;28;20453;-75
2021/06/01 12:19:09;;;;;;;3.50;2.37;;;24.70;1.00;;;;;;4977061;28;20606;-75
2021/06/01 12:21:48;;;;;;;4.00;2.77;;;24.90;1.00;;;;;;4969935;28;20483;-75
2021/06/01 12:24:21;;;;;;;3.40;2.60;;;24.80;1.00;;;;;;4968110;28;20479;-74
2021/06/01 12:32:35;;;;;;;7.43;2.70;;;24.70;1.00;;;;;;4976689;28;20465;-75
2021/06/01 13:09:12;;;;;;;3.70;3.20;;;24.60;1.00;;;;;;4973472;28;21316;-75
2021/06/01 13:37:20;;;;;;;5.57;2.83;;;24.60;1.00;;;;;;4973886;28;20522;-75
2021/06/01 13:39:45;;;;;;;2.90;2.47;;;24.70;1.00;;;;;;4974602;28;20461;-75
2021/06/01 13:48:32;;;;;;;3.53;2.60;;;24.60;1.00;;;;;;4973499;28;20541;-75
2021/06/01 13:56:14;;;;;;;7.60;3.20;;;24.60;1.00;;;;;;4971386;28;20551;-75
2021/06/01 13:59:01;;;;;;;3.70;2.87;;;24.50;1.00;;;;;;4975129;28;21126;-74
2021/06/01 14:02:16;;;;;;;5.90;2.90;;;24.60;1.00;;;;;;4977513;28;20553;-75
2021/06/01 15:07:22;;;;;;;2.93;2.63;;;24.10;1.00;;;;;;4970630;28;20542;-75
2021/06/01 16:15:04;;;;;;;4.73;2.40;;;23.20;1.00;;;;;;4971394;28;20452;-74
2021/06/01 16:42:27;;;;;;;4.13;2.00;;;23.10;1.00;;;;;;4973732;28;20471;-74
2021/06/01 17:07:05;;;;;;;4.30;2.17;;;22.90;1.00;;;;;;4961097;28;20554;-74
2021/06/01 17:12:27;;;;;;;6.70;2.10;;;22.70;1.00;;;;;;4973265;28;20862;-75
2021/06/01 17:14:54;;;;;;;4.47;2.13;;;22.60;1.00;;;;;;4983611;28;20963;-75
2021/06/01 17:17:23;;;;;;;2.83;2.03;;;22.60;1.00;;;;;;4973665;28;20463;-74
2021/06/01 17:23:47;;;;;;;4.00;2.30;;;22.50;1.00;;;;;;5074517;28;20474;-75
2021/06/01 17:37:04;;;;;;;3.13;2.53;;;22.40;1.00;;;;;;4975266;28;20536;-74
2021/06/01 17:39:30;;;;;;;3.03;2.30;;;22.50;1.00;;;;;;4975672;28;21822;-74
2021/06/01 17:41:58;;;;;;;2.60;2.27;;;22.50;1.00;;;;;;4976879;28;20459;-74
2021/06/01 17:44:26;;;;;;;2.50;2.00;;;22.50;1.00;;;;;;4970605;28;20757;-74
2021/06/01 17:46:56;;;;;;;4.00;2.30;;;22.50;1.00;;;;;;4978126;28;20459;-74
2021/06/01 17:49:24;;;;;;;4.10;2.30;;;22.50;1.00;;;;;;4979824;28;20455;-74
2021/06/01 17:51:54;;;;;;;2.73;2.10;;;22.40;1.00;;;;;;4962546;28;20502;-74
2021/06/01 17:54:39;;;;;;;5.50;3.10;;;22.40;1.00;;;;;;4970441;28;20499;-74
2021/06/01 17:57:05;;;;;;;5.17;2.30;;;22.40;1.00;;;;;;4977404;28;20457;-74
2021/06/01 17:59:31;;;;;;;3.80;2.50;;;22.40;1.00;;;;;;4963377;28;20455;-74
2021/06/01 18:01:57;;;;;;;5.33;2.60;;;22.30;1.00;;;;;;4971986;28;20201;-74
2021/06/01 18:04:25;;;;;;;3.40;2.37;;;22.30;1.00;;;;;;4969087;28;20441;-74
2021/06/01 18:06:57;;;;;;;3.30;2.00;;;22.30;1.00;;;;;;4974747;28;20513;-75
2021/06/01 19:42:51;;;;;;;4.33;2.57;;;20.60;1.00;;;;;;4972384;28;20536;-74
2021/06/01 19:50:50;;;;;;;3.73;2.70;;;20.50;1.00;;;;;;4966982;28;20468;-75
2021/06/01 19:53:17;;;;;;;3.90;2.40;;;20.40;1.00;;;;;;4975006;28;20455;-75
2021/06/01 19:55:43;;;;;;;5.23;2.33;;;20.40;1.00;;;;;;4978464;28;20496;-74
2021/06/01 19:58:10;;;;;;;4.60;2.50;;;20.30;1.00;;;;;;4974429;28;20472;-75
2021/06/01 20:00:36;;;;;;;4.60;2.90;;;20.30;1.00;;;;;;4979784;28;20460;-74
2021/06/01 20:03:01;;;;;;;4.30;2.67;;;20.30;1.00;;;;;;4975031;28;20459;-74
2021/06/01 20:05:28;;;;;;;3.93;3.10;;;20.30;1.00;;;;;;4976436;28;20230;-75
2021/06/01 20:07:54;;;;;;;5.53;2.53;;;20.30;1.00;;;;;;4971550;28;20193;-75
2021/06/01 20:10:20;;;;;;;5.00;2.73;;;20.20;1.00;;;;;;4977850;28;20560;-75
2021/06/01 20:12:46;;;;;;;4.23;2.30;;;20.20;1.00;;;;;;4975990;28;20550;-75
2021/06/01 20:15:14;;;;;;;3.13;2.40;;;20.10;1.00;;;;;;4978726;28;20188;-75
2021/06/01 20:17:42;;;;;;;4.10;3.10;;;20.10;1.00;;;;;;4978412;28;20513;-75
2021/06/01 20:20:23;;;;;;;4.57;2.83;;;20.10;1.00;;;;;;4967266;28;20448;-74
2021/06/01 20:22:58;;;;;;;3.90;2.70;;;20.00;1.00;;;;;;4970910;28;20968;-75
2021/06/01 20:25:24;;;;;;;4.00;2.90;;;19.90;1.00;;;;;;4972734;28;20475;-75
2021/06/01 20:27:53;;;;;;;4.23;2.33;;;19.90;1.00;;;;;;4971307;28;21040;-75
2021/06/01 20:30:32;;;;;;;3.30;2.40;;;19.80;1.00;;;;;;4977384;28;20194;-73
2021/06/01 20:33:10;;;;;;;3.50;2.43;;;19.70;1.00;;;;;;4972291;28;20656;-75